createdAt,value
2022-10-14T00:01:20.539Z,88.12
2022-10-14T00:04:06.360Z,88.40
2022-10-14T00:06:51.619Z,88.20
2022-10-14T00:09:36.857Z,88.16
2022-10-14T00:12:23.726Z,88.44
2022-10-14T00:15:09.272Z,88.70
2022-10-14T00:17:54.282Z,88.54
2022-10-14T00:20:39.739Z,88.75
2022-10-14T00:23:25.260Z,88.81
2022-10-14T00:26:20.568Z,88.95
2022-10-14T00:29:11.151Z,88.92
2022-10-14T00:31:56.327Z,88.43
2022-10-14T00:34:41.795Z,89.03
2022-10-14T00:37:28.275Z,88.92
2022-10-14T00:40:13.549Z,88.84
2022-10-14T00:42:58.869Z,88.54
2022-10-14T00:45:44.300Z,88.89
2022-10-14T00:48:29.675Z,88.90
2022-10-14T00:51:18.399Z,88.97
2022-10-14T00:54:05.281Z,88.71
2022-10-14T00:56:51.509Z,89.14
2022-10-14T00:59:38.402Z,89.19
2022-10-14T01:02:24.112Z,89.36
2022-10-14T01:05:12.195Z,89.12
2022-10-14T01:08:03.610Z,89.13
2022-10-14T01:11:05.652Z,89.32
2022-10-14T01:14:21.424Z,89.21
2022-10-14T01:17:12.905Z,89.34
2022-10-14T01:20:22.862Z,89.36
2022-10-14T01:23:30.072Z,89.08
2022-10-14T01:26:36.162Z,89.37
2022-10-14T01:29:46.146Z,89.21
2022-10-14T01:32:48.003Z,89.01
2022-10-14T01:35:43.406Z,89.22
2022-10-14T01:38:44.870Z,89.09
2022-10-14T01:41:36.715Z,89.16
2022-10-14T01:44:25.092Z,89.08
2022-10-14T01:47:13.473Z,89.19
2022-10-14T01:50:09.658Z,89.33
2022-10-14T01:53:01.610Z,89.35
2022-10-14T01:55:49.198Z,89.01
2022-10-14T01:58:37.672Z,89.11
2022-10-14T02:01:24.837Z,89.07
2022-10-14T02:04:19.397Z,89.25
2022-10-14T02:07:23.373Z,89.31
2022-10-14T02:10:22.519Z,89.10
2022-10-14T02:13:24.133Z,89.26
2022-10-14T02:16:23.312Z,88.98
2022-10-14T02:19:14.440Z,89.10
2022-10-14T02:22:31.323Z,89.29
2022-10-14T02:25:37.025Z,89.66
2022-10-14T02:28:27.119Z,89.75
2022-10-14T02:31:18.158Z,89.66
2022-10-14T02:34:10.453Z,89.97
2022-10-14T02:36:56.462Z,89.78
2022-10-14T02:39:49.267Z,89.95
2022-10-14T02:42:34.890Z,89.73
2022-10-14T02:45:26.122Z,89.50
2022-10-14T02:48:12.727Z,89.53
2022-10-14T02:50:57.919Z,89.39
2022-10-14T02:53:43.222Z,88.97
2022-10-14T02:56:29.107Z,88.98
2022-10-14T02:59:14.254Z,89.06
2022-10-14T03:02:00.339Z,88.80
2022-10-14T03:04:46.778Z,89.20
2022-10-14T03:07:32.347Z,88.27
2022-10-14T03:10:21.619Z,88.62
2022-10-14T03:13:07.315Z,88.45
2022-10-14T03:15:59.083Z,88.40
2022-10-14T03:18:45.103Z,88.44
2022-10-14T03:21:42.880Z,88.65
2022-10-14T03:24:34.414Z,88.04
2022-10-14T03:27:40.986Z,88.28
2022-10-14T03:30:30.111Z,88.10
2022-10-14T03:33:24.506Z,88.59
2022-10-14T03:36:17.608Z,88.16
2022-10-14T03:39:05.801Z,88.37
2022-10-14T03:42:10.976Z,88.24
2022-10-14T03:45:01.700Z,88.85
2022-10-14T03:47:49.237Z,88.87
2022-10-14T03:50:34.834Z,89.00
2022-10-14T03:53:20.258Z,88.88
2022-10-14T03:56:06.586Z,88.93
2022-10-14T03:58:53.952Z,89.11
2022-10-14T04:01:40.636Z,89.49
2022-10-14T04:04:36.530Z,89.79
2022-10-14T04:07:23.093Z,89.65
2022-10-14T04:10:14.226Z,89.94
2022-10-14T04:13:04.971Z,89.87
2022-10-14T04:15:55.339Z,90.37
2022-10-14T04:18:53.961Z,90.59
2022-10-14T04:21:41.026Z,90.19
2022-10-14T04:24:27.762Z,90.15
2022-10-14T04:27:17.916Z,90.12
2022-10-14T04:30:08.102Z,90.16
2022-10-14T04:33:04.856Z,90.11
2022-10-14T04:35:51.588Z,90.41
2022-10-14T04:38:45.029Z,90.25
2022-10-14T04:41:30.795Z,90.06
2022-10-14T04:44:19.442Z,90.03
2022-10-14T04:47:08.824Z,90.06
2022-10-14T04:49:55.957Z,89.66
2022-10-14T04:52:41.742Z,89.55
2022-10-14T04:55:30.900Z,89.35
2022-10-14T04:58:16.969Z,89.35
2022-10-14T05:01:05.074Z,89.22
2022-10-14T05:03:55.359Z,89.26
2022-10-14T05:06:40.867Z,89.28
2022-10-14T05:09:28.608Z,89.27
2022-10-14T05:12:14.635Z,89.19
2022-10-14T05:15:07.254Z,89.26
2022-10-14T05:17:59.449Z,89.23
2022-10-14T05:20:59.495Z,89.23
2022-10-14T05:23:54.115Z,89.34
2022-10-14T05:26:39.294Z,89.36
2022-10-14T05:29:28.434Z,89.21
2022-10-14T05:32:15.771Z,88.97
2022-10-14T05:35:04.966Z,88.99
2022-10-14T05:38:00.654Z,89.02
2022-10-14T05:40:54.502Z,89.05
2022-10-14T05:43:40.302Z,89.51
2022-10-14T05:46:25.297Z,88.77
2022-10-14T05:49:14.252Z,88.73
2022-10-14T05:52:00.467Z,88.76
2022-10-14T05:54:45.841Z,88.29
2022-10-14T05:57:35.514Z,88.33
2022-10-14T06:00:25.632Z,88.21
2022-10-14T06:03:18.979Z,87.99
2022-10-14T06:06:04.483Z,88.25
2022-10-14T06:08:49.731Z,88.00
2022-10-14T06:11:35.268Z,88.06
2022-10-14T06:14:20.586Z,87.87
2022-10-14T06:17:06.880Z,87.61
2022-10-14T06:19:52.253Z,87.31
2022-10-14T06:22:37.712Z,87.36
2022-10-14T06:25:22.906Z,87.64
2022-10-14T06:28:08.757Z,87.13
2022-10-14T06:30:55.022Z,86.45
2022-10-14T06:33:40.210Z,86.66
2022-10-14T06:36:25.382Z,86.65
2022-10-14T06:39:11.007Z,86.40
2022-10-14T06:41:56.184Z,86.62
2022-10-14T06:44:41.925Z,86.46
2022-10-14T06:47:27.871Z,86.12
2022-10-14T06:50:13.170Z,86.10
2022-10-14T06:52:58.590Z,86.20
2022-10-14T06:55:44.374Z,86.37
2022-10-14T06:58:30.898Z,86.06
2022-10-14T07:01:16.168Z,85.96
2022-10-14T07:04:01.786Z,85.63
2022-10-14T07:06:49.955Z,85.56
2022-10-14T07:09:35.115Z,84.69
2022-10-14T07:12:20.664Z,85.00
2022-10-14T07:15:06.708Z,84.42
2022-10-14T07:17:51.917Z,84.35
2022-10-14T07:20:37.266Z,84.55
2022-10-14T07:23:22.722Z,84.70
2022-10-14T07:26:08.083Z,84.26
2022-10-14T07:28:53.448Z,84.28
2022-10-14T07:31:38.573Z,84.51
2022-10-14T07:34:23.617Z,84.26
2022-10-14T07:37:09.080Z,84.10
2022-10-14T07:39:54.586Z,84.21
2022-10-14T07:42:40.238Z,84.30
2022-10-14T07:45:25.754Z,84.36
2022-10-14T07:48:10.991Z,83.85
2022-10-14T07:50:56.555Z,83.75
2022-10-14T07:53:41.725Z,83.93
2022-10-14T07:56:27.634Z,83.50
2022-10-14T07:59:13.125Z,83.69
2022-10-14T08:01:59.140Z,82.83
2022-10-14T08:04:44.922Z,82.89
2022-10-14T08:07:30.990Z,82.67
2022-10-14T08:10:16.222Z,82.84
2022-10-14T08:13:01.422Z,82.77
2022-10-14T08:15:46.617Z,82.64
2022-10-14T08:18:31.997Z,83.04
2022-10-14T08:21:19.697Z,83.37
2022-10-14T08:24:17.340Z,82.52
2022-10-14T08:27:02.896Z,81.90
2022-10-14T08:29:48.214Z,80.25
2022-10-14T08:32:33.353Z,78.63
2022-10-14T08:35:19.237Z,77.06
2022-10-14T08:38:04.466Z,74.57
2022-10-14T08:41:02.907Z,72.70
2022-10-14T08:44:13.309Z,71.72
2022-10-14T08:47:04.523Z,69.62
2022-10-14T08:49:58.509Z,68.81
2022-10-14T08:52:52.791Z,69.64
2022-10-14T08:55:46.574Z,69.61
2022-10-14T08:58:40.194Z,70.04
2022-10-14T09:01:31.823Z,70.12
2022-10-14T09:04:17.632Z,69.66
2022-10-14T09:07:04.036Z,68.60
2022-10-14T09:10:07.987Z,68.42
2022-10-14T09:12:56.694Z,68.70
2022-10-14T09:15:45.949Z,69.01
2022-10-14T09:18:53.864Z,68.28
2022-10-14T09:21:52.654Z,69.25
2022-10-14T09:24:38.766Z,68.45
2022-10-14T09:27:24.622Z,68.35
2022-10-14T09:30:15.869Z,67.97
2022-10-14T09:33:17.527Z,68.45
2022-10-14T09:36:09.243Z,68.37
2022-10-14T09:38:59.156Z,68.72
2022-10-14T09:41:52.427Z,69.10
2022-10-14T09:44:37.672Z,69.23
2022-10-14T09:47:29.687Z,69.92
2022-10-14T09:50:34.858Z,69.98
2022-10-14T09:53:38.608Z,69.47
2022-10-14T09:56:42.414Z,69.59
2022-10-14T09:59:28.448Z,69.35
2022-10-14T10:02:23.215Z,69.31
2022-10-14T10:05:25.342Z,69.43
2022-10-14T10:08:14.013Z,69.79
2022-10-14T10:11:10.310Z,70.14
2022-10-14T10:13:56.523Z,70.63
2022-10-14T10:16:41.557Z,70.83
2022-10-14T10:19:31.973Z,70.63
2022-10-14T10:22:31.522Z,71.05
2022-10-14T10:25:21.224Z,70.99
2022-10-14T10:28:15.858Z,71.27
2022-10-14T10:31:19.476Z,70.62
2022-10-14T10:34:21.876Z,71.23
2022-10-14T10:37:46.471Z,71.60
2022-10-14T10:40:44.092Z,70.91
2022-10-14T10:43:49.215Z,70.46
2022-10-14T10:46:51.746Z,70.92
2022-10-14T10:58:43.172Z,69.95
2022-10-14T11:02:10.400Z,68.85
2022-10-14T11:05:25.014Z,69.10
2022-10-14T11:12:22.887Z,68.89
2022-10-14T11:15:27.547Z,68.64
2022-10-14T11:18:47.493Z,67.99
2022-10-14T11:22:04.617Z,67.85
2022-10-14T11:25:00.138Z,68.76
2022-10-14T11:27:45.447Z,67.98
2022-10-14T11:30:45.064Z,66.63
2022-10-14T11:33:50.495Z,64.90
2022-10-14T11:37:03.303Z,65.57
2022-10-14T11:39:59.257Z,65.64
2022-10-14T11:43:13.576Z,65.60
2022-10-14T11:46:09.913Z,66.39
2022-10-14T11:49:03.828Z,66.17
2022-10-14T11:51:58.187Z,67.04
2022-10-14T11:55:13.748Z,66.89
2022-10-14T11:58:10.242Z,65.86
2022-10-14T12:01:18.040Z,65.48
2022-10-14T12:04:10.678Z,64.66
2022-10-14T12:07:18.905Z,64.84
2022-10-14T12:10:19.662Z,64.00
2022-10-14T12:13:13.658Z,64.64
2022-10-14T12:16:01.107Z,64.91
2022-10-14T12:18:53.678Z,65.01
2022-10-14T12:22:15.954Z,65.85
2022-10-14T12:25:17.275Z,65.94
2022-10-14T12:28:03.623Z,65.79
2022-10-14T12:30:48.898Z,66.36
2022-10-14T12:34:15.326Z,65.86
2022-10-14T12:37:27.160Z,66.65
2022-10-14T12:40:25.308Z,66.76
2022-10-14T12:43:31.837Z,67.39
2022-10-14T12:46:17.317Z,67.23
2022-10-14T12:49:02.900Z,67.27
2022-10-14T12:51:56.474Z,66.76
2022-10-14T12:54:48.105Z,66.54
2022-10-14T12:57:38.706Z,66.20
2022-10-14T13:00:26.848Z,65.78
2022-10-14T13:03:20.546Z,65.02
2022-10-14T13:06:42.213Z,64.43
2022-10-14T13:09:34.801Z,63.55
2022-10-14T13:12:22.686Z,63.38
2022-10-14T13:15:45.482Z,62.78
2022-10-14T13:18:31.553Z,63.23
2022-10-14T13:21:34.818Z,63.75
2022-10-14T13:24:27.597Z,63.49
2022-10-14T13:27:37.024Z,63.68
2022-10-14T13:30:46.188Z,64.36
2022-10-14T13:33:40.450Z,64.61
2022-10-14T13:36:51.939Z,64.67
2022-10-14T13:39:38.093Z,64.29
2022-10-14T13:42:31.944Z,64.50
2022-10-14T13:45:20.643Z,64.65
2022-10-14T13:48:05.981Z,64.82
2022-10-14T13:50:58.695Z,64.52
2022-10-14T13:54:00.499Z,64.66
2022-10-14T13:57:38.291Z,64.85
2022-10-14T14:00:43.894Z,64.08
2022-10-14T14:03:38.663Z,63.57
2022-10-14T14:06:27.774Z,63.67
2022-10-14T14:09:27.342Z,63.41
2022-10-14T14:12:13.473Z,63.95
2022-10-14T14:15:00.419Z,63.90
2022-10-14T14:17:45.559Z,63.90
2022-10-14T14:20:33.890Z,64.39
2022-10-14T14:23:19.247Z,64.57
2022-10-14T14:26:18.987Z,65.04
2022-10-14T14:29:06.709Z,65.00
2022-10-14T14:32:08.602Z,65.31
2022-10-14T14:34:54.947Z,65.25
2022-10-14T14:37:55.122Z,65.41
2022-10-14T14:40:41.046Z,65.72
2022-10-14T14:43:31.308Z,65.42
2022-10-14T14:46:28.190Z,65.62
2022-10-14T14:49:25.776Z,65.31
2022-10-14T14:52:13.887Z,65.45
2022-10-14T14:54:59.362Z,66.11
2022-10-14T14:57:44.719Z,65.07
2022-10-14T15:00:32.880Z,65.63
2022-10-14T15:03:18.507Z,66.09
2022-10-14T15:06:05.585Z,66.62
2022-10-14T15:08:53.337Z,66.90
2022-10-14T15:12:00.635Z,67.98
2022-10-14T15:14:59.408Z,67.84
2022-10-14T15:17:45.970Z,67.92
2022-10-14T15:20:38.464Z,68.83
2022-10-14T15:24:00.154Z,69.34
2022-10-14T15:26:46.223Z,69.27
2022-10-14T15:29:31.414Z,69.45
2022-10-14T15:32:17.611Z,69.53
2022-10-14T15:35:03.085Z,69.74
2022-10-14T15:37:49.307Z,69.67
2022-10-14T15:40:34.965Z,70.12
2022-10-14T15:43:23.006Z,70.21
2022-10-14T15:46:31.738Z,70.41
2022-10-14T15:49:32.240Z,70.71
2022-10-14T15:52:19.458Z,70.69
2022-10-14T15:55:21.892Z,71.12
2022-10-14T15:58:07.520Z,71.56
2022-10-14T16:00:56.464Z,71.51
2022-10-14T16:03:41.969Z,71.87
2022-10-14T16:06:30.917Z,72.33
2022-10-14T16:09:16.201Z,72.37
2022-10-14T16:12:02.785Z,72.73
2022-10-14T16:14:47.947Z,73.46
2022-10-14T16:17:33.360Z,73.39
2022-10-14T16:20:18.944Z,73.83
2022-10-14T16:23:05.324Z,73.88
2022-10-14T16:25:51.377Z,74.15
2022-10-14T16:28:36.606Z,74.72
2022-10-14T16:31:21.954Z,74.41
2022-10-14T16:34:11.671Z,74.64
2022-10-14T16:36:57.227Z,74.87
2022-10-14T16:39:42.424Z,75.08
2022-10-14T16:42:28.604Z,75.33
2022-10-14T16:45:14.113Z,75.65
2022-10-14T16:47:59.684Z,75.46
2022-10-14T16:50:52.935Z,75.56
2022-10-14T16:53:41.400Z,75.36
2022-10-14T16:56:45.529Z,75.54
2022-10-14T16:59:31.246Z,75.63
2022-10-14T17:02:17.837Z,75.89
2022-10-14T17:05:03.266Z,76.05
2022-10-14T17:07:48.498Z,75.92
2022-10-14T17:10:33.807Z,76.21
2022-10-14T17:13:19.099Z,76.52
2022-10-14T17:16:06.214Z,76.77
2022-10-14T17:18:52.009Z,76.46
2022-10-14T17:21:38.146Z,76.50
2022-10-14T17:24:26.002Z,76.94
2022-10-14T17:27:11.733Z,76.56
2022-10-14T17:29:57.154Z,76.48
2022-10-14T17:32:42.391Z,76.64
2022-10-14T17:35:27.879Z,76.51
2022-10-14T17:38:14.459Z,76.70
2022-10-14T17:41:08.495Z,76.81
2022-10-14T17:43:55.851Z,76.80
2022-10-14T17:46:41.115Z,76.82
2022-10-14T17:49:26.587Z,77.15
2022-10-14T17:52:12.045Z,77.10
2022-10-14T17:54:58.994Z,77.42
2022-10-14T17:57:47.682Z,77.40
2022-10-14T18:00:32.915Z,77.53
2022-10-14T18:03:18.544Z,77.76
2022-10-14T18:06:26.902Z,77.78
2022-10-14T18:09:12.457Z,77.80
2022-10-14T18:12:13.442Z,78.05
2022-10-14T18:14:58.916Z,77.88
2022-10-14T18:17:44.615Z,77.67
2022-10-14T18:20:29.527Z,77.79
2022-10-14T18:23:14.857Z,77.70
2022-10-14T18:26:06.296Z,77.72
2022-10-14T18:28:55.730Z,77.62
2022-10-14T18:32:08.511Z,77.86
2022-10-14T18:34:53.817Z,78.04
2022-10-14T18:37:39.139Z,78.21
2022-10-14T18:40:24.654Z,78.53
2022-10-14T18:43:09.761Z,78.21
2022-10-14T18:46:06.017Z,78.45
2022-10-14T18:48:53.306Z,78.67
2022-10-14T18:51:41.012Z,78.93
2022-10-14T18:54:26.084Z,79.10
2022-10-14T18:57:14.852Z,79.29
2022-10-14T19:00:00.139Z,79.04
2022-10-14T19:02:45.696Z,79.14
2022-10-14T19:05:35.809Z,79.24
2022-10-14T19:08:23.554Z,79.36
2022-10-14T19:11:19.725Z,79.71
2022-10-14T19:14:05.707Z,79.84
2022-10-14T19:16:51.624Z,79.36
2022-10-14T19:19:36.951Z,79.39
2022-10-14T19:22:25.001Z,79.86
2022-10-14T19:25:10.651Z,79.65
2022-10-14T19:27:55.870Z,79.75
2022-10-14T19:30:41.216Z,79.57
2022-10-14T19:33:26.365Z,79.58
2022-10-14T19:36:14.045Z,79.86
2022-10-14T19:39:00.340Z,79.89
2022-10-14T19:41:47.312Z,79.53
2022-10-14T19:47:23.231Z,79.81
2022-10-14T19:50:09.217Z,79.80
2022-10-14T19:52:54.662Z,80.07
2022-10-14T19:55:40.810Z,79.89
2022-10-14T19:58:26.387Z,80.17
2022-10-14T20:01:17.006Z,80.07
2022-10-14T20:04:02.972Z,79.56
2022-10-14T20:06:48.323Z,80.43
2022-10-14T20:09:34.581Z,80.61
2022-10-14T20:12:20.795Z,80.37
2022-10-14T20:15:07.580Z,80.77
